sensor_id;sensor_type;location;lat;lon;timestamp;P1;P2;P0
73305;PMS5003;61530;51.158;0.880;2023-02-28T00:01:02;6;4;3
73305;PMS5003;61530;51.158;0.880;2023-02-28T00:02:06;5;4;3
73305;PMS5003;61530;51.158;0.880;2023-02-28T00:03:09;5;5;3
73305;PMS5003;61530;51.158;0.880;2023-02-28T00:04:14;4;4;2
73305;PMS5003;61530;51.158;0.880;2023-02-28T00:05:18;5;5;3
73305;PMS5003;61530;51.158;0.880;2023-02-28T00:06:22;4;4;1
73305;PMS5003;61530;51.158;0.880;2023-02-28T00:07:25;5;4;2
73305;PMS5003;61530;51.158;0.880;2023-02-28T00:08:30;3;3;2
73305;PMS5003;61530;51.158;0.880;2023-02-28T00:09:34;3;3;3
73305;PMS5003;61530;51.158;0.880;2023-02-28T00:10:38;2;2;2
73305;PMS5003;61530;51.158;0.880;2023-02-28T00:11:41;4;4;2
73305;PMS5003;61530;51.158;0.880;2023-02-28T00:12:46;4;4;2
73305;PMS5003;61530;51.158;0.880;2023-02-28T00:13:50;7;4;3
73305;PMS5003;61530;51.158;0.880;2023-02-28T00:14:54;5;3;2
73305;PMS5003;61530;51.158;0.880;2023-02-28T00:15:59;3;3;2
73305;PMS5003;61530;51.158;0.880;2023-02-28T00:17:03;4;3;1
73305;PMS5003;61530;51.158;0.880;2023-02-28T00:18:06;5;5;3
73305;PMS5003;61530;51.158;0.880;2023-02-28T00:19:10;3;3;2
73305;PMS5003;61530;51.158;0.880;2023-02-28T00:20:13;4;4;2
73305;PMS5003;61530;51.158;0.880;2023-02-28T00:21:19;5;4;2
73305;PMS5003;61530;51.158;0.880;2023-02-28T00:22:22;7;4;2
73305;PMS5003;61530;51.158;0.880;2023-02-28T00:23:26;5;5;2
73305;PMS5003;61530;51.158;0.880;2023-02-28T00:24:29;5;3;3
73305;PMS5003;61530;51.158;0.880;2023-02-28T00:25:34;7;4;3
73305;PMS5003;61530;51.158;0.880;2023-02-28T00:26:38;5;4;3
73305;PMS5003;61530;51.158;0.880;2023-02-28T00:27:42;7;5;4
73305;PMS5003;61530;51.158;0.880;2023-02-28T00:28:45;7;7;5
73305;PMS5003;61530;51.158;0.880;2023-02-28T00:29:50;7;5;3
73305;PMS5003;61530;51.158;0.880;2023-02-28T00:30:54;5;5;4
73305;PMS5003;61530;51.158;0.880;2023-02-28T00:31:58;9;7;4
73305;PMS5003;61530;51.158;0.880;2023-02-28T00:33:01;7;7;5
73305;PMS5003;61530;51.158;0.880;2023-02-28T00:34:06;7;7;4
73305;PMS5003;61530;51.158;0.880;2023-02-28T00:35:10;7;7;5
73305;PMS5003;61530;51.158;0.880;2023-02-28T00:36:14;9;7;5
73305;PMS5003;61530;51.158;0.880;2023-02-28T00:37:17;9;8;4
73305;PMS5003;61530;51.158;0.880;2023-02-28T00:38:22;9;8;5
73305;PMS5003;61530;51.158;0.880;2023-02-28T00:39:26;9;8;5
73305;PMS5003;61530;51.158;0.880;2023-02-28T00:40:30;9;9;5
73305;PMS5003;61530;51.158;0.880;2023-02-28T00:41:33;11;8;8
73305;PMS5003;61530;51.158;0.880;2023-02-28T00:42:38;8;8;7
73305;PMS5003;61530;51.158;0.880;2023-02-28T00:43:42;9;9;8
73305;PMS5003;61530;51.158;0.880;2023-02-28T00:44:46;15;15;15
73305;PMS5003;61530;51.158;0.880;2023-02-28T00:45:49;23;22;21
73305;PMS5003;61530;51.158;0.880;2023-02-28T00:46:54;24;23;21
73305;PMS5003;61530;51.158;0.880;2023-02-28T00:47:58;20;16;15
73305;PMS5003;61530;51.158;0.880;2023-02-28T00:49:02;10;9;7
73305;PMS5003;61530;51.158;0.880;2023-02-28T00:50:06;7;7;4
73305;PMS5003;61530;51.158;0.880;2023-02-28T00:51:10;5;4;2
73305;PMS5003;61530;51.158;0.880;2023-02-28T00:52:14;4;3;1
73305;PMS5003;61530;51.158;0.880;2023-02-28T00:53:18;5;3;1
73305;PMS5003;61530;51.158;0.880;2023-02-28T00:54:22;4;3;1
73305;PMS5003;61530;51.158;0.880;2023-02-28T00:55:26;3;3;2
73305;PMS5003;61530;51.158;0.880;2023-02-28T00:56:30;15;15;8
73305;PMS5003;61530;51.158;0.880;2023-02-28T00:57:34;4;2;2
73305;PMS5003;61530;51.158;0.880;2023-02-28T00:58:39;5;5;2
73305;PMS5003;61530;51.158;0.880;2023-02-28T00:59:43;7;4;3
73305;PMS5003;61530;51.158;0.880;2023-02-28T01:00:46;5;3;2
73305;PMS5003;61530;51.158;0.880;2023-02-28T01:01:50;8;4;2
73305;PMS5003;61530;51.158;0.880;2023-02-28T01:02:53;4;4;2
73305;PMS5003;61530;51.158;0.880;2023-02-28T01:03:58;4;4;2
73305;PMS5003;61530;51.158;0.880;2023-02-28T01:05:02;8;7;2
73305;PMS5003;61530;51.158;0.880;2023-02-28T01:06:06;4;3;2
73305;PMS5003;61530;51.158;0.880;2023-02-28T01:07:09;4;2;1
73305;PMS5003;61530;51.158;0.880;2023-02-28T01:08:14;4;3;1
73305;PMS5003;61530;51.158;0.880;2023-02-28T01:09:18;2;2;1
73305;PMS5003;61530;51.158;0.880;2023-02-28T01:10:22;7;3;1
73305;PMS5003;61530;51.158;0.880;2023-02-28T01:11:25;4;4;1
73305;PMS5003;61530;51.158;0.880;2023-02-28T01:12:30;3;3;2
73305;PMS5003;61530;51.158;0.880;2023-02-28T01:13:34;3;3;2
73305;PMS5003;61530;51.158;0.880;2023-02-28T01:14:38;2;2;1
73305;PMS5003;61530;51.158;0.880;2023-02-28T01:15:42;2;2;1
73305;PMS5003;61530;51.158;0.880;2023-02-28T01:16:46;4;4;2
73305;PMS5003;61530;51.158;0.880;2023-02-28T01:17:50;4;2;1
73305;PMS5003;61530;51.158;0.880;2023-02-28T01:18:54;4;3;2
73305;PMS5003;61530;51.158;0.880;2023-02-28T01:19:57;3;3;1
73305;PMS5003;61530;51.158;0.880;2023-02-28T01:21:03;4;2;2
73305;PMS5003;61530;51.158;0.880;2023-02-28T01:22:06;4;3;1
73305;PMS5003;61530;51.158;0.880;2023-02-28T01:23:10;5;5;2
73305;PMS5003;61530;51.158;0.880;2023-02-28T01:24:13;4;4;1
73305;PMS5003;61530;51.158;0.880;2023-02-28T01:25:18;3;3;2
73305;PMS5003;61530;51.158;0.880;2023-02-28T01:26:22;2;2;1
73305;PMS5003;61530;51.158;0.880;2023-02-28T01:27:26;7;4;2
73305;PMS5003;61530;51.158;0.880;2023-02-28T01:28:29;1;1;1
73305;PMS5003;61530;51.158;0.880;2023-02-28T01:29:34;2;2;1
73305;PMS5003;61530;51.158;0.880;2023-02-28T01:30:38;5;4;1
73305;PMS5003;61530;51.158;0.880;2023-02-28T01:31:42;6;2;1
73305;PMS5003;61530;51.158;0.880;2023-02-28T01:32:45;4;3;2
73305;PMS5003;61530;51.158;0.880;2023-02-28T01:33:50;3;3;1
73305;PMS5003;61530;51.158;0.880;2023-02-28T01:34:54;4;3;2
73305;PMS5003;61530;51.158;0.880;2023-02-28T01:35:58;3;3;1
73305;PMS5003;61530;51.158;0.880;2023-02-28T01:37:01;4;3;1
73305;PMS5003;61530;51.158;0.880;2023-02-28T01:38:06;3;3;2
73305;PMS5003;61530;51.158;0.880;2023-02-28T01:39:10;2;2;1
73305;PMS5003;61530;51.158;0.880;2023-02-28T01:40:14;3;3;1
73305;PMS5003;61530;51.158;0.880;2023-02-28T01:41:19;2;2;2
73305;PMS5003;61530;51.158;0.880;2023-02-28T01:42:22;3;2;0
73305;PMS5003;61530;51.158;0.880;2023-02-28T01:43:26;4;2;1
73305;PMS5003;61530;51.158;0.880;2023-02-28T01:45:34;2;2;0
73305;PMS5003;61530;51.158;0.880;2023-02-28T01:45:38;3;3;1
73305;PMS5003;61530;51.158;0.880;2023-02-28T01:46:38;3;1;1
73305;PMS5003;61530;51.158;0.880;2023-02-28T01:47:42;4;4;2
73305;PMS5003;61530;51.158;0.880;2023-02-28T01:48:46;3;3;2
73305;PMS5003;61530;51.158;0.880;2023-02-28T01:49:49;2;2;2
73305;PMS5003;61530;51.158;0.880;2023-02-28T01:50:55;2;2;1
73305;PMS5003;61530;51.158;0.880;2023-02-28T01:51:58;4;2;1
73305;PMS5003;61530;51.158;0.880;2023-02-28T01:53:03;2;2;1
73305;PMS5003;61530;51.158;0.880;2023-02-28T01:54:06;3;2;1
73305;PMS5003;61530;51.158;0.880;2023-02-28T01:55:10;3;3;1
73305;PMS5003;61530;51.158;0.880;2023-02-28T01:56:14;3;3;2
73305;PMS5003;61530;51.158;0.880;2023-02-28T01:57:18;2;2;1
73305;PMS5003;61530;51.158;0.880;2023-02-28T01:58:21;2;1;1
73305;PMS5003;61530;51.158;0.880;2023-02-28T01:59:27;1;1;0
73305;PMS5003;61530;51.158;0.880;2023-02-28T02:00:30;2;2;2
73305;PMS5003;61530;51.158;0.880;2023-02-28T02:01:34;4;3;2
73305;PMS5003;61530;51.158;0.880;2023-02-28T02:02:37;4;2;1
73305;PMS5003;61530;51.158;0.880;2023-02-28T02:03:42;4;2;1
73305;PMS5003;61530;51.158;0.880;2023-02-28T02:04:49;2;2;1
73305;PMS5003;61530;51.158;0.880;2023-02-28T02:05:50;2;2;1
73305;PMS5003;61530;51.158;0.880;2023-02-28T02:06:53;2;2;1
73305;PMS5003;61530;51.158;0.880;2023-02-28T02:08:01;3;3;1
73305;PMS5003;61530;51.158;0.880;2023-02-28T02:09:02;1;1;1
73305;PMS5003;61530;51.158;0.880;2023-02-28T02:10:10;3;3;1
73305;PMS5003;61530;51.158;0.880;2023-02-28T02:11:09;3;2;1
73305;PMS5003;61530;51.158;0.880;2023-02-28T02:12:17;2;2;1
73305;PMS5003;61530;51.158;0.880;2023-02-28T02:13:21;3;2;1
73305;PMS5003;61530;51.158;0.880;2023-02-28T02:14:27;4;4;1
73305;PMS5003;61530;51.158;0.880;2023-02-28T02:15:26;3;2;1
73305;PMS5003;61530;51.158;0.880;2023-02-28T02:16:34;3;3;1
73305;PMS5003;61530;51.158;0.880;2023-02-28T02:17:34;6;3;2
73305;PMS5003;61530;51.158;0.880;2023-02-28T02:18:39;4;3;2
73305;PMS5003;61530;51.158;0.880;2023-02-28T02:19:53;2;2;1
73305;PMS5003;61530;51.158;0.880;2023-02-28T02:31:14;1;1;1
73305;PMS5003;61530;51.158;0.880;2023-02-28T02:32:17;3;3;1
73305;PMS5003;61530;51.158;0.880;2023-02-28T02:33:24;3;2;1
73305;PMS5003;61530;51.158;0.880;2023-02-28T02:34:40;4;2;1
73305;PMS5003;61530;51.158;0.880;2023-02-28T02:35:43;3;3;2
73305;PMS5003;61530;51.158;0.880;2023-02-28T02:36:46;1;1;0
73305;PMS5003;61530;51.158;0.880;2023-02-28T02:37:51;4;4;1
73305;PMS5003;61530;51.158;0.880;2023-02-28T02:38:55;6;6;1
73305;PMS5003;61530;51.158;0.880;2023-02-28T02:40:00;3;3;2
73305;PMS5003;61530;51.158;0.880;2023-02-28T02:41:04;2;2;1
73305;PMS5003;61530;51.158;0.880;2023-02-28T02:42:09;7;3;1
73305;PMS5003;61530;51.158;0.880;2023-02-28T02:43:11;2;2;1
73305;PMS5003;61530;51.158;0.880;2023-02-28T02:44:15;4;3;0
73305;PMS5003;61530;51.158;0.880;2023-02-28T02:45:19;2;2;1
73305;PMS5003;61530;51.158;0.880;2023-02-28T02:46:23;3;2;1
73305;PMS5003;61530;51.158;0.880;2023-02-28T02:47:26;2;2;1
73305;PMS5003;61530;51.158;0.880;2023-02-28T02:48:30;4;3;1
73305;PMS5003;61530;51.158;0.880;2023-02-28T02:49:34;4;3;2
73305;PMS5003;61530;51.158;0.880;2023-02-28T02:50:39;3;2;1
73305;PMS5003;61530;51.158;0.880;2023-02-28T02:51:42;4;3;1
73305;PMS5003;61530;51.158;0.880;2023-02-28T02:52:48;2;2;1
73305;PMS5003;61530;51.158;0.880;2023-02-28T02:53:50;6;2;1
73305;PMS5003;61530;51.158;0.880;2023-02-28T02:54:54;2;2;1
73305;PMS5003;61530;51.158;0.880;2023-02-28T02:55:58;3;2;1
73305;PMS5003;61530;51.158;0.880;2023-02-28T02:57:04;3;3;1
73305;PMS5003;61530;51.158;0.880;2023-02-28T02:58:07;6;2;1
73305;PMS5003;61530;51.158;0.880;2023-02-28T02:59:11;2;2;1
73305;PMS5003;61530;51.158;0.880;2023-02-28T03:00:14;4;1;1
73305;PMS5003;61530;51.158;0.880;2023-02-28T03:01:19;1;1;1
73305;PMS5003;61530;51.158;0.880;2023-02-28T03:02:21;2;2;1
73305;PMS5003;61530;51.158;0.880;2023-02-28T03:03:26;6;2;1
73305;PMS5003;61530;51.158;0.880;2023-02-28T03:04:31;1;1;1
73305;PMS5003;61530;51.158;0.880;2023-02-28T03:05:35;6;3;1
73305;PMS5003;61530;51.158;0.880;2023-02-28T03:06:37;2;2;1
73305;PMS5003;61530;51.158;0.880;2023-02-28T03:07:42;2;2;1
73305;PMS5003;61530;51.158;0.880;2023-02-28T03:08:46;6;4;1
73305;PMS5003;61530;51.158;0.880;2023-02-28T03:09:50;3;2;1
73305;PMS5003;61530;51.158;0.880;2023-02-28T03:10:55;6;2;1
73305;PMS5003;61530;51.158;0.880;2023-02-28T03:11:58;3;3;1
73305;PMS5003;61530;51.158;0.880;2023-02-28T03:13:07;2;2;2
73305;PMS5003;61530;51.158;0.880;2023-02-28T03:14:25;6;4;2
73305;PMS5003;61530;51.158;0.880;2023-02-28T03:15:11;8;7;3
73305;PMS5003;61530;51.158;0.880;2023-02-28T03:16:21;7;4;2
73305;PMS5003;61530;51.158;0.880;2023-02-28T03:17:22;4;4;2
73305;PMS5003;61530;51.158;0.880;2023-02-28T03:18:22;8;6;3
73305;PMS5003;61530;51.158;0.880;2023-02-28T03:19:30;5;4;2
73305;PMS5003;61530;51.158;0.880;2023-02-28T03:20:34;4;4;2
73305;PMS5003;61530;51.158;0.880;2023-02-28T03:21:34;5;4;2
73305;PMS5003;61530;51.158;0.880;2023-02-28T03:22:41;7;5;3
73305;PMS5003;61530;51.158;0.880;2023-02-28T03:23:42;8;7;2
73305;PMS5003;61530;51.158;0.880;2023-02-28T03:24:49;7;3;1
73305;PMS5003;61530;51.158;0.880;2023-02-28T03:25:53;3;3;2
73305;PMS5003;61530;51.158;0.880;2023-02-28T03:26:54;4;3;2
73305;PMS5003;61530;51.158;0.880;2023-02-28T03:28:00;3;3;2
73305;PMS5003;61530;51.158;0.880;2023-02-28T03:29:03;3;3;2
73305;PMS5003;61530;51.158;0.880;2023-02-28T03:30:09;4;4;2
73305;PMS5003;61530;51.158;0.880;2023-02-28T03:31:12;8;4;2
73305;PMS5003;61530;51.158;0.880;2023-02-28T03:32:15;4;3;2
73305;PMS5003;61530;51.158;0.880;2023-02-28T03:33:19;9;3;1
73305;PMS5003;61530;51.158;0.880;2023-02-28T03:34:24;9;3;1
73305;PMS5003;61530;51.158;0.880;2023-02-28T03:35:27;2;2;2
73305;PMS5003;61530;51.158;0.880;2023-02-28T03:36:30;7;3;1
73305;PMS5003;61530;51.158;0.880;2023-02-28T03:37:35;4;3;2
73305;PMS5003;61530;51.158;0.880;2023-02-28T03:38:38;4;3;2
73305;PMS5003;61530;51.158;0.880;2023-02-28T03:39:42;3;3;2
73305;PMS5003;61530;51.158;0.880;2023-02-28T03:40:47;5;4;1
73305;PMS5003;61530;51.158;0.880;2023-02-28T03:41:51;3;3;2
73305;PMS5003;61530;51.158;0.880;2023-02-28T03:42:56;5;2;1
73305;PMS5003;61530;51.158;0.880;2023-02-28T03:43:59;5;3;1
73305;PMS5003;61530;51.158;0.880;2023-02-28T03:45:02;9;8;4
73305;PMS5003;61530;51.158;0.880;2023-02-28T03:46:08;5;3;1
73305;PMS5003;61530;51.158;0.880;2023-02-28T03:47:11;7;3;2
73305;PMS5003;61530;51.158;0.880;2023-02-28T03:48:15;3;3;1
73305;PMS5003;61530;51.158;0.880;2023-02-28T03:49:18;4;3;2
73305;PMS5003;61530;51.158;0.880;2023-02-28T03:50:23;5;3;2
73305;PMS5003;61530;51.158;0.880;2023-02-28T03:51:25;16;15;8
73305;PMS5003;61530;51.158;0.880;2023-02-28T03:52:31;9;9;4
73305;PMS5003;61530;51.158;0.880;2023-02-28T03:53:34;18;16;14
73305;PMS5003;61530;51.158;0.880;2023-02-28T03:54:40;24;23;21
73305;PMS5003;61530;51.158;0.880;2023-02-28T03:55:42;12;11;7
73305;PMS5003;61530;51.158;0.880;2023-02-28T03:56:48;23;18;15
73305;PMS5003;61530;51.158;0.880;2023-02-28T03:57:51;19;18;16
73305;PMS5003;61530;51.158;0.880;2023-02-28T03:58:55;16;16;15
73305;PMS5003;61530;51.158;0.880;2023-02-28T03:59:59;12;12;5
73305;PMS5003;61530;51.158;0.880;2023-02-28T04:01:03;11;8;4
73305;PMS5003;61530;51.158;0.880;2023-02-28T04:02:06;9;8;4
73305;PMS5003;61530;51.158;0.880;2023-02-28T04:03:10;12;9;5
73305;PMS5003;61530;51.158;0.880;2023-02-28T04:04:14;9;8;5
73305;PMS5003;61530;51.158;0.880;2023-02-28T04:05:18;8;7;4
73305;PMS5003;61530;51.158;0.880;2023-02-28T04:06:22;8;8;5
73305;PMS5003;61530;51.158;0.880;2023-02-28T04:07:29;7;7;5
73305;PMS5003;61530;51.158;0.880;2023-02-28T04:08:30;10;7;5
73305;PMS5003;61530;51.158;0.880;2023-02-28T04:09:34;10;10;7
73305;PMS5003;61530;51.158;0.880;2023-02-28T04:10:37;9;8;5
73305;PMS5003;61530;51.158;0.880;2023-02-28T04:11:43;11;10;7
73305;PMS5003;61530;51.158;0.880;2023-02-28T04:12:46;11;8;5
73305;PMS5003;61530;51.158;0.880;2023-02-28T04:13:50;4;4;2
73305;PMS5003;61530;51.158;0.880;2023-02-28T04:14:53;8;8;1
73305;PMS5003;61530;51.158;0.880;2023-02-28T04:15:58;7;4;1
73305;PMS5003;61530;51.158;0.880;2023-02-28T04:17:02;8;4;3
73305;PMS5003;61530;51.158;0.880;2023-02-28T04:18:06;7;5;1
73305;PMS5003;61530;51.158;0.880;2023-02-28T04:19:10;5;3;1
73305;PMS5003;61530;51.158;0.880;2023-02-28T04:20:14;4;3;2
73305;PMS5003;61530;51.158;0.880;2023-02-28T04:21:18;5;3;2
73305;PMS5003;61530;51.158;0.880;2023-02-28T04:22:22;9;7;3
73305;PMS5003;61530;51.158;0.880;2023-02-28T04:23:25;5;4;2
73305;PMS5003;61530;51.158;0.880;2023-02-28T04:24:30;4;3;2
73305;PMS5003;61530;51.158;0.880;2023-02-28T04:25:33;3;3;2
73305;PMS5003;61530;51.158;0.880;2023-02-28T04:26:38;5;5;2
73305;PMS5003;61530;51.158;0.880;2023-02-28T04:27:41;3;3;2
73305;PMS5003;61530;51.158;0.880;2023-02-28T04:28:46;7;5;3
73305;PMS5003;61530;51.158;0.880;2023-02-28T04:29:50;4;4;2
73305;PMS5003;61530;51.158;0.880;2023-02-28T04:30:54;5;4;2
73305;PMS5003;61530;51.158;0.880;2023-02-28T04:31:58;4;2;1
73305;PMS5003;61530;51.158;0.880;2023-02-28T04:33:02;7;4;2
73305;PMS5003;61530;51.158;0.880;2023-02-28T04:34:06;3;3;2
73305;PMS5003;61530;51.158;0.880;2023-02-28T04:35:10;4;4;2
73305;PMS5003;61530;51.158;0.880;2023-02-28T04:36:13;7;7;1
73305;PMS5003;61530;51.158;0.880;2023-02-28T04:37:18;5;4;2
73305;PMS5003;61530;51.158;0.880;2023-02-28T04:38:22;3;3;2
73305;PMS5003;61530;51.158;0.880;2023-02-28T04:39:26;4;4;3
73305;PMS5003;61530;51.158;0.880;2023-02-28T04:40:29;3;3;2
73305;PMS5003;61530;51.158;0.880;2023-02-28T04:41:34;7;4;3
73305;PMS5003;61530;51.158;0.880;2023-02-28T04:42:37;7;7;3
73305;PMS5003;61530;51.158;0.880;2023-02-28T04:43:42;5;4;3
73305;PMS5003;61530;51.158;0.880;2023-02-28T04:44:45;5;4;3
73305;PMS5003;61530;51.158;0.880;2023-02-28T04:45:50;10;8;4
73305;PMS5003;61530;51.158;0.880;2023-02-28T04:46:54;5;4;2
73305;PMS5003;61530;51.158;0.880;2023-02-28T04:47:58;4;3;2
73305;PMS5003;61530;51.158;0.880;2023-02-28T04:49:01;10;5;2
73305;PMS5003;61530;51.158;0.880;2023-02-28T04:50:06;8;4;3
73305;PMS5003;61530;51.158;0.880;2023-02-28T04:51:10;7;5;2
73305;PMS5003;61530;51.158;0.880;2023-02-28T04:52:14;14;10;3
73305;PMS5003;61530;51.158;0.880;2023-02-28T04:53:18;8;4;2
73305;PMS5003;61530;51.158;0.880;2023-02-28T04:54:22;4;4;2
73305;PMS5003;61530;51.158;0.880;2023-02-28T04:55:26;3;3;2
73305;PMS5003;61530;51.158;0.880;2023-02-28T04:56:30;8;3;1
73305;PMS5003;61530;51.158;0.880;2023-02-28T04:57:33;5;4;1
73305;PMS5003;61530;51.158;0.880;2023-02-28T04:58:38;9;5;3
73305;PMS5003;61530;51.158;0.880;2023-02-28T04:59:42;4;4;2
73305;PMS5003;61530;51.158;0.880;2023-02-28T05:00:46;7;7;3
73305;PMS5003;61530;51.158;0.880;2023-02-28T05:01:49;5;5;3
73305;PMS5003;61530;51.158;0.880;2023-02-28T05:02:54;5;5;3
73305;PMS5003;61530;51.158;0.880;2023-02-28T05:03:58;8;5;3
73305;PMS5003;61530;51.158;0.880;2023-02-28T05:05:02;8;5;2
73305;PMS5003;61530;51.158;0.880;2023-02-28T05:06:05;12;7;3
73305;PMS5003;61530;51.158;0.880;2023-02-28T05:07:10;13;6;3
73305;PMS5003;61530;51.158;0.880;2023-02-28T05:08:14;7;7;2
73305;PMS5003;61530;51.158;0.880;2023-02-28T05:09:18;9;7;3
73305;PMS5003;61530;51.158;0.880;2023-02-28T05:10:21;12;7;2
73305;PMS5003;61530;51.158;0.880;2023-02-28T05:11:27;7;4;3
73305;PMS5003;61530;51.158;0.880;2023-02-28T05:12:29;7;5;3
73305;PMS5003;61530;51.158;0.880;2023-02-28T05:13:34;3;3;2
73305;PMS5003;61530;51.158;0.880;2023-02-28T05:14:37;7;5;3
73305;PMS5003;61530;51.158;0.880;2023-02-28T05:15:42;10;4;3
73305;PMS5003;61530;51.158;0.880;2023-02-28T05:16:45;4;2;2
73305;PMS5003;61530;51.158;0.880;2023-02-28T05:17:50;4;4;2
73305;PMS5003;61530;51.158;0.880;2023-02-28T05:18:53;5;4;3
73305;PMS5003;61530;51.158;0.880;2023-02-28T05:19:58;8;5;3
73305;PMS5003;61530;51.158;0.880;2023-02-28T05:21:02;12;7;2
73305;PMS5003;61530;51.158;0.880;2023-02-28T05:22:11;10;6;3
73305;PMS5003;61530;51.158;0.880;2023-02-28T05:23:10;4;4;2
73305;PMS5003;61530;51.158;0.880;2023-02-28T05:24:14;5;5;2
73305;PMS5003;61530;51.158;0.880;2023-02-28T05:25:18;4;4;3
73305;PMS5003;61530;51.158;0.880;2023-02-28T05:26:22;8;5;3
73305;PMS5003;61530;51.158;0.880;2023-02-28T05:27:25;4;3;1
73305;PMS5003;61530;51.158;0.880;2023-02-28T05:28:30;5;5;3
73305;PMS5003;61530;51.158;0.880;2023-02-28T05:29:34;9;7;3
73305;PMS5003;61530;51.158;0.880;2023-02-28T05:30:38;9;9;3
73305;PMS5003;61530;51.158;0.880;2023-02-28T05:31:41;8;8;4
73305;PMS5003;61530;51.158;0.880;2023-02-28T05:32:49;9;7;2
73305;PMS5003;61530;51.158;0.880;2023-02-28T05:33:50;7;4;2
73305;PMS5003;61530;51.158;0.880;2023-02-28T05:34:54;5;5;3
73305;PMS5003;61530;51.158;0.880;2023-02-28T05:35:57;9;8;4
73305;PMS5003;61530;51.158;0.880;2023-02-28T05:37:02;6;6;4
73305;PMS5003;61530;51.158;0.880;2023-02-28T05:38:06;9;7;3
73305;PMS5003;61530;51.158;0.880;2023-02-28T05:39:10;16;12;4
73305;PMS5003;61530;51.158;0.880;2023-02-28T05:40:13;14;7;3
73305;PMS5003;61530;51.158;0.880;2023-02-28T05:41:19;15;11;4
73305;PMS5003;61530;51.158;0.880;2023-02-28T05:42:21;14;8;4
73305;PMS5003;61530;51.158;0.880;2023-02-28T05:43:26;7;5;4
73305;PMS5003;61530;51.158;0.880;2023-02-28T05:44:29;4;4;2
73305;PMS5003;61530;51.158;0.880;2023-02-28T05:45:35;11;8;4
73305;PMS5003;61530;51.158;0.880;2023-02-28T05:46:38;9;8;4
73305;PMS5003;61530;51.158;0.880;2023-02-28T05:47:42;7;5;2
73305;PMS5003;61530;51.158;0.880;2023-02-28T05:48:47;7;7;3
73305;PMS5003;61530;51.158;0.880;2023-02-28T05:49:50;12;8;4
73305;PMS5003;61530;51.158;0.880;2023-02-28T05:50:54;8;7;3
73305;PMS5003;61530;51.158;0.880;2023-02-28T05:51:58;9;7;4
73305;PMS5003;61530;51.158;0.880;2023-02-28T05:53:02;7;4;3
73305;PMS5003;61530;51.158;0.880;2023-02-28T05:54:06;3;3;2
73305;PMS5003;61530;51.158;0.880;2023-02-28T05:55:10;9;5;3
73305;PMS5003;61530;51.158;0.880;2023-02-28T05:56:14;9;7;3
73305;PMS5003;61530;51.158;0.880;2023-02-28T05:57:17;9;4;2
73305;PMS5003;61530;51.158;0.880;2023-02-28T05:58:22;9;4;3
73305;PMS5003;61530;51.158;0.880;2023-02-28T05:59:26;7;5;3
73305;PMS5003;61530;51.158;0.880;2023-02-28T06:00:30;10;8;5
73305;PMS5003;61530;51.158;0.880;2023-02-28T06:01:34;11;9;4
73305;PMS5003;61530;51.158;0.880;2023-02-28T06:02:38;8;7;3
73305;PMS5003;61530;51.158;0.880;2023-02-28T06:03:42;5;5;3
73305;PMS5003;61530;51.158;0.880;2023-02-28T06:04:46;7;5;2
73305;PMS5003;61530;51.158;0.880;2023-02-28T06:05:49;7;4;3
73305;PMS5003;61530;51.158;0.880;2023-02-28T06:06:54;6;6;3
73305;PMS5003;61530;51.158;0.880;2023-02-28T06:07:58;4;3;2
73305;PMS5003;61530;51.158;0.880;2023-02-28T06:09:02;11;5;2
73305;PMS5003;61530;51.158;0.880;2023-02-28T06:10:06;10;4;2
73305;PMS5003;61530;51.158;0.880;2023-02-28T06:11:10;9;3;2
73305;PMS5003;61530;51.158;0.880;2023-02-28T06:12:14;4;4;2
73305;PMS5003;61530;51.158;0.880;2023-02-28T06:13:18;7;4;2
73305;PMS5003;61530;51.158;0.880;2023-02-28T06:14:21;4;4;2
73305;PMS5003;61530;51.158;0.880;2023-02-28T06:15:26;3;3;1
73305;PMS5003;61530;51.158;0.880;2023-02-28T06:16:30;5;3;2
73305;PMS5003;61530;51.158;0.880;2023-02-28T06:17:34;2;2;1
73305;PMS5003;61530;51.158;0.880;2023-02-28T06:18:37;4;4;3
73305;PMS5003;61530;51.158;0.880;2023-02-28T06:19:43;5;3;2
73305;PMS5003;61530;51.158;0.880;2023-02-28T06:20:52;5;3;3
73305;PMS5003;61530;51.158;0.880;2023-02-28T06:21:50;4;4;2
73305;PMS5003;61530;51.158;0.880;2023-02-28T06:22:53;7;4;2
73305;PMS5003;61530;51.158;0.880;2023-02-28T06:23:58;8;5;2
73305;PMS5003;61530;51.158;0.880;2023-02-28T06:25:02;3;3;1
73305;PMS5003;61530;51.158;0.880;2023-02-28T06:26:06;4;3;2
73305;PMS5003;61530;51.158;0.880;2023-02-28T06:27:09;7;3;2
73305;PMS5003;61530;51.158;0.880;2023-02-28T06:28:14;4;4;3
73305;PMS5003;61530;51.158;0.880;2023-02-28T06:29:18;3;2;1
73305;PMS5003;61530;51.158;0.880;2023-02-28T06:30:22;2;2;1
73305;PMS5003;61530;51.158;0.880;2023-02-28T06:31:25;2;2;2
73305;PMS5003;61530;51.158;0.880;2023-02-28T06:32:30;2;2;2
73305;PMS5003;61530;51.158;0.880;2023-02-28T06:33:34;2;2;1
73305;PMS5003;61530;51.158;0.880;2023-02-28T06:34:38;2;2;2
73305;PMS5003;61530;51.158;0.880;2023-02-28T06:35:43;2;2;1
73305;PMS5003;61530;51.158;0.880;2023-02-28T06:36:46;3;3;2
73305;PMS5003;61530;51.158;0.880;2023-02-28T06:37:50;5;4;3
73305;PMS5003;61530;51.158;0.880;2023-02-28T06:38:54;4;4;4
73305;PMS5003;61530;51.158;0.880;2023-02-28T06:39:57;5;5;5
73305;PMS5003;61530;51.158;0.880;2023-02-28T06:41:02;7;7;5
73305;PMS5003;61530;51.158;0.880;2023-02-28T06:42:06;9;7;7
73305;PMS5003;61530;51.158;0.880;2023-02-28T06:43:10;8;8;5
73305;PMS5003;61530;51.158;0.880;2023-02-28T06:44:13;8;8;7
73305;PMS5003;61530;51.158;0.880;2023-02-28T06:45:18;10;8;8
73305;PMS5003;61530;51.158;0.880;2023-02-28T06:46:22;7;7;7
73305;PMS5003;61530;51.158;0.880;2023-02-28T06:47:26;5;4;4
73305;PMS5003;61530;51.158;0.880;2023-02-28T06:48:29;2;2;2
73305;PMS5003;61530;51.158;0.880;2023-02-28T06:49:34;2;2;1
73305;PMS5003;61530;51.158;0.880;2023-02-28T06:50:38;0;0;0
73305;PMS5003;61530;51.158;0.880;2023-02-28T06:51:43;1;0;0
73305;PMS5003;61530;51.158;0.880;2023-02-28T06:52:45;0;0;0
73305;PMS5003;61530;51.158;0.880;2023-02-28T06:53:50;1;0;0
73305;PMS5003;61530;51.158;0.880;2023-02-28T06:54:54;0;0;0
73305;PMS5003;61530;51.158;0.880;2023-02-28T06:55:58;0;0;0
73305;PMS5003;61530;51.158;0.880;2023-02-28T06:57:01;0;0;0
73305;PMS5003;61530;51.158;0.880;2023-02-28T06:58:06;0;0;0
73305;PMS5003;61530;51.158;0.880;2023-02-28T06:59:10;0;0;0
73305;PMS5003;61530;51.158;0.880;2023-02-28T07:00:14;0;0;0
73305;PMS5003;61530;51.158;0.880;2023-02-28T07:01:17;0;0;0
73305;PMS5003;61530;51.158;0.880;2023-02-28T07:02:22;0;0;0
73305;PMS5003;61530;51.158;0.880;2023-02-28T07:03:26;3;1;0
73305;PMS5003;61530;51.158;0.880;2023-02-28T07:04:30;0;0;0
73305;PMS5003;61530;51.158;0.880;2023-02-28T07:05:34;0;0;0
73305;PMS5003;61530;51.158;0.880;2023-02-28T07:06:38;2;0;0
73305;PMS5003;61530;51.158;0.880;2023-02-28T07:07:42;1;1;0
73305;PMS5003;61530;51.158;0.880;2023-02-28T07:08:46;1;1;0
73305;PMS5003;61530;51.158;0.880;2023-02-28T07:09:49;2;1;1
73305;PMS5003;61530;51.158;0.880;2023-02-28T07:10:54;0;0;0
73305;PMS5003;61530;51.158;0.880;2023-02-28T07:11:57;0;0;0
73305;PMS5003;61530;51.158;0.880;2023-02-28T07:13:02;0;0;0
73305;PMS5003;61530;51.158;0.880;2023-02-28T07:14:05;1;1;0
73305;PMS5003;61530;51.158;0.880;2023-02-28T07:15:10;1;1;0
73305;PMS5003;61530;51.158;0.880;2023-02-28T07:16:13;3;1;0
73305;PMS5003;61530;51.158;0.880;2023-02-28T07:17:18;2;1;1
73305;PMS5003;61530;51.158;0.880;2023-02-28T07:18:21;1;1;1
73305;PMS5003;61530;51.158;0.880;2023-02-28T07:19:26;1;1;0
73305;PMS5003;61530;51.158;0.880;2023-02-28T07:20:30;3;3;2
73305;PMS5003;61530;51.158;0.880;2023-02-28T07:21:34;4;3;2